createdAt,value
2018-11-25T00:09:49.255Z,43.6
2018-11-25T00:19:48.514Z,44.3
2018-11-25T00:29:47.675Z,45
2018-11-25T00:39:46.883Z,45.8
2018-11-25T00:49:46.092Z,46.4
2018-11-25T00:59:45.307Z,47.1
2018-11-25T01:09:44.510Z,47.9
2018-11-25T01:19:43.715Z,48.5
2018-11-25T01:29:42.926Z,49.2
2018-11-25T01:39:42.140Z,49.9
2018-11-25T01:49:41.349Z,50.6
2018-11-25T01:59:40.556Z,50.6
2018-11-25T02:09:39.759Z,51.5
2018-11-25T02:19:38.976Z,52.3
2018-11-25T02:29:38.181Z,53
2018-11-25T02:39:37.397Z,53.7
2018-11-25T02:49:36.609Z,54.4
2018-11-25T02:59:35.805Z,55.1
2018-11-25T03:09:35.009Z,55.8
2018-11-25T03:19:34.226Z,56.5
2018-11-25T03:29:33.430Z,57.3
2018-11-25T03:39:32.650Z,57.9
2018-11-25T03:49:31.849Z,58.5
2018-11-25T03:59:31.066Z,59.3
2018-11-25T04:09:30.264Z,59.6
2018-11-25T04:19:29.468Z,59.4
2018-11-25T04:29:28.674Z,59.2
2018-11-25T04:39:27.889Z,58.9
2018-11-25T04:49:27.100Z,58.9
2018-11-25T04:59:26.307Z,58.9
2018-11-25T05:09:25.522Z,58.8
2018-11-25T05:19:24.730Z,58.8
2018-11-25T05:29:23.928Z,58.7
2018-11-25T05:39:23.140Z,57.4
2018-11-25T05:49:22.352Z,56.6
2018-11-25T05:59:21.561Z,52
2018-11-25T06:09:20.766Z,51.3
2018-11-25T06:19:19.970Z,50.4
2018-11-25T06:29:19.173Z,50.1
2018-11-25T06:39:18.384Z,48.6
2018-11-25T06:49:17.599Z,47.9
2018-11-25T06:59:16.802Z,47.8
2018-11-25T07:09:16.011Z,48
2018-11-25T07:19:15.221Z,47.9
2018-11-25T07:29:14.419Z,47.8
2018-11-25T07:39:13.633Z,47.3
2018-11-25T07:49:12.853Z,47.4
2018-11-25T07:59:12.055Z,47.2
2018-11-25T08:09:11.266Z,47.3
2018-11-25T08:19:10.477Z,46.7
2018-11-25T08:29:09.685Z,44.3
2018-11-25T08:39:08.897Z,42
2018-11-25T08:49:08.101Z,40.7
2018-11-25T08:59:07.308Z,40.4
2018-11-25T09:09:06.520Z,38.9
2018-11-25T09:19:05.733Z,39.3
2018-11-25T09:29:04.959Z,38.8
2018-11-25T09:39:04.156Z,39.1
2018-11-25T09:49:03.366Z,40.6
2018-11-25T09:59:02.581Z,41.6
2018-11-25T10:09:01.780Z,42.3
2018-11-25T10:19:00.994Z,42.8
2018-11-25T10:29:00.212Z,42.3
2018-11-25T10:38:59.423Z,42
2018-11-25T10:48:58.652Z,42.1
2018-11-25T10:58:57.869Z,42.3
2018-11-25T11:08:57.091Z,39.9
2018-11-25T11:18:56.304Z,40.2
2018-11-25T11:28:55.516Z,40.3
2018-11-25T11:38:54.734Z,40.4
2018-11-25T11:48:53.949Z,40.6
2018-11-25T11:58:53.155Z,40.8
2018-11-25T12:08:52.417Z,40.7
2018-11-25T12:18:51.588Z,40.7
2018-11-25T12:28:50.793Z,41
2018-11-25T12:38:50.007Z,41.3
2018-11-25T12:48:49.224Z,41.9
2018-11-25T12:58:48.487Z,41.8
2018-11-25T13:08:47.654Z,42.5
2018-11-25T13:18:46.869Z,43.2
2018-11-25T13:28:46.081Z,43.8
2018-11-25T13:38:45.287Z,44.2
2018-11-25T13:48:44.499Z,44.3
2018-11-25T13:58:43.716Z,44.4
2018-11-25T14:08:42.935Z,44.4
2018-11-25T14:18:42.142Z,44.3
2018-11-25T14:28:41.363Z,44.3
2018-11-25T14:38:40.575Z,44.1
2018-11-25T14:48:39.778Z,44
2018-11-25T14:58:38.997Z,43.9
2018-11-25T15:08:38.210Z,43.8
2018-11-25T15:18:37.420Z,43.7
2018-11-25T15:28:36.629Z,43.6
2018-11-25T15:38:35.851Z,43.5
2018-11-25T15:48:35.041Z,43.4
2018-11-25T15:58:34.260Z,43.4
2018-11-25T16:08:37.947Z,43.3
2018-11-25T16:18:32.734Z,43.1
2018-11-25T16:28:31.891Z,42.1
2018-11-25T16:38:31.107Z,41.8
2018-11-25T16:48:30.323Z,40.5
2018-11-25T16:58:29.538Z,37.9
2018-11-25T17:08:28.757Z,34.9
2018-11-25T17:18:27.969Z,34.5
2018-11-25T17:28:27.183Z,34.3
2018-11-25T17:38:26.398Z,33.8
2018-11-25T17:48:25.610Z,33.4
2018-11-25T17:58:24.848Z,27.6
2018-11-25T18:08:24.050Z,26
2018-11-25T18:18:23.264Z,25.9
2018-11-25T18:28:22.480Z,24.3
2018-11-25T18:38:21.707Z,24.2
2018-11-25T18:48:20.922Z,24.2
2018-11-25T18:58:20.130Z,23.9
2018-11-25T19:08:19.345Z,23.9
2018-11-25T19:18:18.555Z,23.4
2018-11-25T19:28:17.773Z,23.4
2018-11-25T19:38:16.988Z,23.4
2018-11-25T19:48:16.197Z,23.5
2018-11-25T19:58:15.419Z,23.4
2018-11-25T20:08:14.725Z,23.6
2018-11-25T20:18:13.851Z,23.6
2018-11-25T20:28:13.062Z,21.3
2018-11-25T20:38:12.273Z,20
2018-11-25T20:48:11.492Z,20.2
2018-11-25T20:58:10.696Z,20.2
2018-11-25T21:08:09.911Z,20.1
2018-11-25T21:18:09.185Z,20.2
2018-11-25T21:28:08.349Z,20.3
2018-11-25T21:38:07.613Z,19.8
2018-11-25T21:48:06.774Z,20
2018-11-25T21:58:05.990Z,20.1
2018-11-25T22:08:05.251Z,20.3
2018-11-25T22:18:04.418Z,20.6
2018-11-25T22:28:03.632Z,20.9
2018-11-25T22:38:02.852Z,21.3
2018-11-25T22:48:02.066Z,21.8
2018-11-25T22:58:01.279Z,22.4
2018-11-25T23:08:00.489Z,23
2018-11-25T23:17:59.700Z,23.6
2018-11-25T23:27:58.912Z,24.3
2018-11-25T23:37:58.121Z,25.1
2018-11-25T23:47:57.347Z,25.8
2018-11-25T23:57:56.548Z,26.5
